Airfield :







YOU CAN JOIN US ON...

 
LOGIN :

Register | Disclaimer

   EN    FR    IT 

 









Legend :    VFR   Marginal VFR   IFR   Intensive IFR   Very Intensive IFR
Visi :
Ceiling :
>= 8 km
>= 3000ft
5 to 8 km
1000 to 3000 ft
1500m to 5 km
500 to 1000 ft
800 to 1500m
200 to 500 ft
< 800m
< 200 ft
Symbols :   Thunderstorms  Fog  Heavy snow  Heavy precipitations  Wind > 20 kt







- Airport Elevation : 285 ft
- IATA code : ALB


KALB - Albany International

CURRENT METAR :
  • 201551Z 18011KT 10SM OVC011 23/19 A2955 RMK AO2 SLP006 T02280189

EXPIRED METARs :
  • 201451Z 17010KT 10SM OVC011 22/18 A2957 RMK AO2 SLP013 T02220183 58021
  • 201351Z 17009KT 10SM OVC011 22/18 A2960 RMK AO2 SLP022 T02170183
  • 201311Z 17006KT 10SM OVC010 22/18 A2962 RMK AO2 T02170183

TAF KALB
Valid from the 20 at 12:00 until the 21 at 12:00 UTC


201135Z 2012/2112 16005KT P6SM -SHRA OVC009
FM201400 18009KT P6SM -SHRA OVC012
FM201600 18009KT P6SM -SHRA OVC018
TEMPO 2020/2023 2SM +TSRA BR OVC009CB
FM202300 30005KT 6SM -SHRA BR OVC015
FM210700 33009KT P6SM OVC025
KZBW FIR / North America



MET'MAP, your aeronautical weather chart ! - Copyright ORBIFLY December 2007 - Disclaimer

ORBIFLY MET'MAP TEAM :

Programming & Development : Alexandra Zaïnal
Concept & Development : Baudouin d'Aumeries
Co-Development & Prog : Marc-Olivier Méhu
Technical & hardware support : Manuel Goepfert

Contact : metmap@orbifly.com




SOURCES & CREDITS :

   NOAA